Time;durP1;ratioP1;P1;durP2;ratioP2;P2;SDS_P1;SDS_P2;PMS_P1;PMS_P2;Temp;Humidity;BMP_temperature;BMP_pressure;BME280_temperature;BME280_humidity;BME280_pressure;Samples;Min_cycle;Max_cycle;Signal;HPM_P1;HPM_P2
2021/11/19 00:01:22;;;;;;;46.92;15.45;;;;;;;9.29;84.76;102611.44;5033121;28;20049;-66
2021/11/19 00:03:49;;;;;;;36.70;14.65;;;;;;;9.39;83.87;102611.72;5034099;28;20591;-66
2021/11/19 00:06:17;;;;;;;40.38;15.85;;;;;;;9.32;84.39;102611.25;5049362;28;20057;-66
2021/11/19 00:08:50;;;;;;;40.58;15.63;;;;;;;9.34;84.08;102617.28;5033374;28;20045;-66
2021/11/19 00:11:22;;;;;;;46.90;15.95;;;;;;;9.23;85.09;102607.41;5033504;28;20056;-66
2021/11/19 00:13:49;;;;;;;38.15;16.70;;;;;;;9.27;85.12;102617.81;5033913;28;20065;-66
2021/11/19 00:16:19;;;;;;;41.50;16.17;;;;;;;9.15;85.45;102622.94;5033588;28;20045;-66
2021/11/19 00:18:46;;;;;;;45.75;16.85;;;;;;;9.31;84.86;102621.94;5032584;28;20041;-66
2021/11/19 00:21:13;;;;;;;37.50;16.30;;;;;;;9.30;84.87;102613.16;5033705;28;20045;-66
2021/11/19 00:23:43;;;;;;;39.42;17.50;;;;;;;9.39;84.51;102607.25;5033374;28;20065;-66
2021/11/19 00:26:10;;;;;;;44.40;16.58;;;;;;;9.40;84.42;102614.25;5033789;28;20485;-66
2021/11/19 00:28:38;;;;;;;45.55;16.35;;;;;;;9.43;84.86;102612.38;5048534;28;20033;-66
2021/11/19 00:31:06;;;;;;;47.63;17.23;;;;;;;9.44;84.56;102608.75;5047820;28;20055;-66
2021/11/19 00:33:36;;;;;;;47.33;17.23;;;;;;;9.53;84.25;102602.84;5052222;28;20051;-66
2021/11/19 00:36:04;;;;;;;45.90;18.02;;;;;;;9.48;84.39;102599.63;5053234;28;20052;-66
2021/11/19 00:38:32;;;;;;;50.38;17.40;;;;;;;9.35;85.38;102602.25;5053224;28;20573;-66
2021/11/19 00:41:02;;;;;;;48.78;17.65;;;;;;;9.39;85.09;102599.31;5051968;28;20065;-66
2021/11/19 00:43:29;;;;;;;52.20;17.58;;;;;;;9.38;84.79;102605.53;5061614;28;20083;-66
2021/11/19 00:45:58;;;;;;;54.03;18.15;;;;;;;9.34;85.40;102593.47;5052118;28;20099;-66
2021/11/19 00:48:28;;;;;;;46.13;18.15;;;;;;;9.36;85.44;102591.56;5051818;28;20049;-66
2021/11/19 00:51:03;;;;;;;47.65;18.15;;;;;;;9.43;84.89;102588.53;5052732;28;20056;-66
2021/11/19 00:53:32;;;;;;;44.03;18.08;;;;;;;9.40;84.98;102602.78;5053120;28;20094;-66
2021/11/19 00:55:59;;;;;;;43.47;17.85;;;;;;;9.37;85.29;102601.22;5052604;28;20037;-66
2021/11/19 00:58:26;;;;;;;50.65;18.00;;;;;;;9.37;85.71;102606.50;5052927;28;20045;-66
2021/11/19 01:00:57;;;;;;;50.17;17.90;;;;;;;9.57;84.52;102607.00;5068197;28;20128;-65
2021/11/19 01:03:26;;;;;;;48.60;18.75;;;;;;;9.44;85.06;102606.97;5050633;28;20522;-66
2021/11/19 01:05:53;;;;;;;42.15;18.40;;;;;;;9.58;84.52;102611.34;5068273;28;20408;-66
2021/11/19 01:08:22;;;;;;;48.65;19.25;;;;;;;9.40;85.58;102614.25;5052814;28;20037;-66
2021/11/19 01:10:51;;;;;;;56.03;19.80;;;;;;;9.48;85.02;102616.41;5050135;28;20088;-66
2021/11/19 01:13:18;;;;;;;56.30;19.20;;;;;;;9.24;85.91;102616.22;5064777;28;20564;-66
2021/11/19 01:15:50;;;;;;;46.10;18.42;;;;;;;9.49;85.21;102607.50;5032470;28;20072;-66
2021/11/19 01:18:29;;;;;;;54.70;20.35;;;;;;;9.40;85.45;102616.03;5032757;28;20041;-65
2021/11/19 01:21:00;;;;;;;52.42;19.77;;;;;;;9.30;86.10;102621.09;5032832;28;20081;-66
2021/11/19 01:23:29;;;;;;;49.40;19.90;;;;;;;9.46;85.96;102625.38;5042409;28;20107;-66
2021/11/19 01:26:02;;;;;;;44.22;19.50;;;;;;;9.50;85.58;102626.91;5051425;28;20068;-66
2021/11/19 01:28:28;;;;;;;41.83;19.70;;;;;;;9.56;85.27;102621.19;5051046;28;20651;-66
2021/11/19 01:31:03;;;;;;;51.55;20.25;;;;;;;9.50;85.40;102621.59;5052825;28;20063;-66
2021/11/19 01:33:31;;;;;;;51.25;19.77;;;;;;;9.39;86.00;102617.84;5049595;28;20106;-66
2021/11/19 01:36:19;;;;;;;45.28;19.02;;;;;;;9.53;85.67;102626.69;5051859;28;20049;-66
2021/11/19 01:39:04;;;;;;;51.25;18.88;;;;;;;9.36;86.53;102625.16;5051503;28;20045;-66
2021/11/19 01:41:57;;;;;;;44.75;20.33;;;;;;;9.37;86.81;102626.84;5052378;28;20483;-66
2021/11/19 01:44:30;;;;;;;44.05;19.58;;;;;;;9.41;86.58;102626.53;5052481;28;20055;-66
2021/11/19 01:46:59;;;;;;;45.00;19.27;;;;;;;9.57;85.77;102625.56;5052206;28;20041;-66
2021/11/19 01:49:33;;;;;;;43.25;19.58;;;;;;;9.54;85.71;102623.09;5052089;28;20045;-66
2021/11/19 01:52:09;;;;;;;43.55;18.80;;;;;;;9.46;86.55;102622.72;5051144;28;20048;-66
2021/11/19 01:54:44;;;;;;;38.88;19.15;;;;;;;9.54;86.39;102625.75;5052124;28;20041;-66
2021/11/19 01:57:35;;;;;;;38.55;18.70;;;;;;;9.52;86.60;102631.13;5052381;28;20037;-66
2021/11/19 02:02:48;;;;;;;40.63;18.65;;;;;;;9.47;86.61;102641.19;5110692;27;20128;-66
2021/11/19 02:05:33;;;;;;;40.53;17.35;;;;;;;9.68;85.86;102638.94;5092076;28;20119;-67
2021/11/19 02:08:08;;;;;;;48.80;19.40;;;;;;;9.58;86.31;102638.66;5059188;28;20044;-67
2021/11/19 02:11:02;;;;;;;42.13;18.55;;;;;;;9.74;85.56;102632.38;5110637;28;20040;-66
2021/11/19 02:13:54;;;;;;;45.50;18.00;;;;;;;9.72;85.75;102636.94;5092218;28;20048;-66
2021/11/19 02:16:29;;;;;;;42.42;17.98;;;;;;;9.68;85.86;102627.47;5110287;28;20047;-67
2021/11/19 02:19:04;;;;;;;45.58;19.02;;;;;;;9.82;85.14;102631.84;5110354;28;20054;-66
2021/11/19 02:21:38;;;;;;;46.63;18.25;;;;;;;9.66;86.21;102627.59;5110016;28;20043;-66
2021/11/19 02:24:10;;;;;;;40.33;18.05;;;;;;;9.58;86.62;102620.13;5097168;28;20408;-67
2021/11/19 02:26:43;;;;;;;45.55;18.08;;;;;;;9.70;86.01;102625.59;5089198;28;20123;-67
2021/11/19 02:29:10;;;;;;;43.45;19.25;;;;;;;9.57;86.51;102622.91;5038745;28;20131;-66
2021/11/19 02:31:56;;;;;;;48.55;19.23;;;;;;;9.54;86.79;102625.75;5072075;28;20037;-66
2021/11/19 02:34:28;;;;;;;48.17;19.83;;;;;;;9.54;87.07;102631.88;5089560;28;20471;-67
2021/11/19 02:37:01;;;;;;;44.75;20.02;;;;;;;9.51;87.16;102633.88;5087866;28;20094;-66
2021/11/19 02:39:40;;;;;;;40.85;19.30;;;;;;;9.50;87.27;102633.03;5089539;28;20036;-67
2021/11/19 02:42:18;;;;;;;53.80;19.38;;;;;;;9.41;88.21;102631.00;5055674;28;20028;-67
2021/11/19 02:44:46;;;;;;;44.13;19.58;;;;;;;9.54;87.59;102636.34;5070370;28;20128;-66
2021/11/19 02:47:20;;;;;;;47.58;19.00;;;;;;;9.39;88.15;102633.75;5054818;28;20230;-66
2021/11/19 02:49:49;;;;;;;60.38;20.35;;;;;;;9.32;88.66;102624.50;5071359;28;20064;-67
2021/11/19 02:52:23;;;;;;;50.13;21.10;;;;;;;9.38;89.00;102626.72;5089386;28;20041;-66
2021/11/19 02:54:53;;;;;;;51.92;20.90;;;;;;;9.59;87.77;102618.34;5089088;28;20041;-66
2021/11/19 02:57:21;;;;;;;48.25;20.35;;;;;;;9.46;88.55;102620.09;5055033;28;20059;-66
2021/11/19 02:59:48;;;;;;;46.95;21.25;;;;;;;9.45;88.59;102613.94;5071008;28;20044;-66
2021/11/19 03:02:22;;;;;;;50.88;20.85;;;;;;;9.46;88.88;102618.31;5098455;28;20048;-66
2021/11/19 03:04:54;;;;;;;43.65;21.20;;;;;;;9.48;89.04;102610.22;5106480;28;20046;-66
2021/11/19 03:07:22;;;;;;;50.22;21.95;;;;;;;9.40;89.38;102613.41;5109549;28;20070;-66
2021/11/19 03:09:53;;;;;;;50.92;21.40;;;;;;;9.36;89.20;102614.56;5108241;28;20445;-67
2021/11/19 03:12:23;;;;;;;49.67;20.35;;;;;;;9.47;89.13;102612.03;5105563;28;20405;-66
2021/11/19 03:14:53;;;;;;;52.10;21.92;;;;;;;9.39;89.41;102614.38;5095821;28;20044;-67
2021/11/19 03:17:22;;;;;;;50.75;21.50;;;;;;;9.52;89.06;102609.94;5095837;28;20051;-66
2021/11/19 03:19:50;;;;;;;49.55;20.90;;;;;;;9.46;89.37;102612.13;5095741;28;20416;-66
2021/11/19 03:22:19;;;;;;;44.13;20.73;;;;;;;9.55;88.87;102615.03;5095591;28;20044;-66
2021/11/19 03:24:47;;;;;;;46.80;20.45;;;;;;;9.65;88.36;102617.09;5095591;28;20067;-66
2021/11/19 03:27:15;;;;;;;42.97;21.27;;;;;;;9.49;89.17;102604.00;5074662;28;20046;-66
2021/11/19 03:29:52;;;;;;;46.65;20.63;;;;;;;9.45;89.26;102605.16;5073789;28;20468;-66
2021/11/19 03:32:22;;;;;;;47.90;19.77;;;;;;;9.44;89.35;102600.78;5075565;28;20494;-66
2021/11/19 03:34:49;;;;;;;50.88;20.77;;;;;;;9.39;89.48;102594.00;5073315;28;20048;-66
2021/11/19 03:37:17;;;;;;;45.50;20.23;;;;;;;9.44;89.83;102601.66;5073745;28;20090;-66
2021/11/19 03:39:45;;;;;;;46.80;20.85;;;;;;;9.45;89.91;102597.22;5074682;28;20594;-66
2021/11/19 03:42:14;;;;;;;41.25;20.38;;;;;;;9.41;90.21;102591.25;5073852;28;20036;-66
2021/11/19 03:44:45;;;;;;;50.70;20.95;;;;;;;9.48;89.47;102586.38;5076043;28;20044;-66
2021/11/19 03:47:18;;;;;;;47.88;20.45;;;;;;;9.45;89.25;102594.56;5094148;28;20404;-66
2021/11/19 03:49:47;;;;;;;42.20;19.02;;;;;;;9.48;89.98;102599.63;5094862;28;20040;-66
2021/11/19 03:52:20;;;;;;;45.15;19.80;;;;;;;9.48;89.52;102597.00;5082302;28;20036;-66
2021/11/19 03:54:50;;;;;;;47.42;23.05;;;;;;;9.49;89.51;102596.88;5074568;28;20493;-66
2021/11/19 03:57:18;;;;;;;51.25;20.42;;;;;;;9.48;90.18;102591.69;5073537;28;20460;-66
2021/11/19 03:59:48;;;;;;;49.08;20.65;;;;;;;9.48;89.60;102592.56;5073453;28;20044;-66
2021/11/19 04:02:16;;;;;;;46.63;20.35;;;;;;;9.41;90.10;102597.41;5074368;28;20098;-66
2021/11/19 04:04:44;;;;;;;41.65;19.27;;;;;;;9.53;89.65;102593.09;5072382;28;20079;-66
2021/11/19 04:07:13;;;;;;;43.10;20.13;;;;;;;9.50;89.63;102606.56;5073451;28;20068;-66
2021/11/19 04:09:44;;;;;;;49.85;20.83;;;;;;;9.31;90.24;102604.25;5073447;28;20523;-66
2021/11/19 04:12:14;;;;;;;47.13;20.23;;;;;;;9.29;90.89;102613.25;5074452;28;20047;-66
2021/11/19 04:14:41;;;;;;;48.63;21.35;;;;;;;9.41;90.48;102609.81;5074223;28;20044;-66
2021/11/19 04:17:09;;;;;;;41.45;20.42;;;;;;;9.36;90.69;102609.25;5072774;28;20440;-66
2021/11/19 04:19:36;;;;;;;45.13;19.92;;;;;;;9.44;90.21;102609.63;5074204;28;20049;-67
2021/11/19 04:22:09;;;;;;;44.90;20.83;;;;;;;9.47;89.82;102608.56;5074187;28;20044;-66
2021/11/19 04:24:45;;;;;;;44.10;19.67;;;;;;;9.53;89.82;102608.13;5073106;28;20051;-66
2021/11/19 04:27:12;;;;;;;42.15;19.95;;;;;;;9.48;90.28;102607.59;5072912;28;20497;-66
2021/11/19 04:29:55;;;;;;;39.30;19.13;;;;;;;9.45;90.12;102616.59;5044487;28;20059;-66
2021/11/19 04:32:25;;;;;;;47.15;21.40;;;;;;;9.56;90.05;102605.28;5070949;28;20036;-66
2021/11/19 04:34:56;;;;;;;51.45;21.90;;;;;;;9.47;90.31;102616.50;5073748;28;20048;-66
2021/11/19 04:37:23;;;;;;;45.45;20.98;;;;;;;9.31;90.95;102616.66;5073978;28;20047;-66
2021/11/19 04:39:51;;;;;;;44.40;21.90;;;;;;;9.47;90.59;102613.84;5072383;28;20045;-66
2021/11/19 04:42:19;;;;;;;46.13;20.95;;;;;;;9.51;90.62;102615.34;5089879;28;20054;-66
2021/11/19 04:44:48;;;;;;;42.22;21.13;;;;;;;9.33;91.11;102617.38;5069287;28;20496;-66
2021/11/19 04:47:15;;;;;;;44.78;21.30;;;;;;;9.45;91.30;102618.41;5073477;28;20052;-66
2021/11/19 04:49:42;;;;;;;52.20;22.52;;;;;;;9.40;91.27;102610.75;5039215;28;20047;-66
2021/11/19 04:52:11;;;;;;;46.22;21.50;;;;;;;9.55;90.86;102614.19;5055772;28;20040;-67
2021/11/19 04:54:39;;;;;;;44.28;22.23;;;;;;;9.49;90.99;102615.44;5071520;28;20041;-66
2021/11/19 04:57:06;;;;;;;46.75;20.85;;;;;;;9.67;90.23;102613.38;5073445;28;20064;-66
2021/11/19 04:59:34;;;;;;;42.40;22.10;;;;;;;9.64;90.81;102613.59;5073404;28;20119;-66
2021/11/19 05:02:07;;;;;;;45.25;21.73;;;;;;;9.46;91.04;102606.84;5073073;28;20036;-66
2021/11/19 05:04:54;;;;;;;48.92;22.30;;;;;;;9.55;90.85;102611.53;5071138;28;20040;-67
2021/11/19 05:07:22;;;;;;;41.80;22.52;;;;;;;9.48;91.19;102602.28;5073264;28;20464;-66
2021/11/19 05:09:51;;;;;;;48.35;21.25;;;;;;;9.79;89.54;102607.25;5071907;28;20044;-67
2021/11/19 05:12:30;;;;;;;45.53;22.88;;;;;;;9.66;90.23;102601.09;5073150;28;20037;-67
2021/11/19 05:14:57;;;;;;;41.95;21.77;;;;;;;9.57;90.33;102605.19;5071737;28;20044;-66
2021/11/19 05:17:24;;;;;;;49.17;22.17;;;;;;;9.65;90.84;102596.72;5072409;28;20041;-67
2021/11/19 05:19:54;;;;;;;44.92;22.15;;;;;;;9.43;91.07;102605.25;5073089;28;20106;-67
2021/11/19 05:22:21;;;;;;;44.42;23.75;;;;;;;9.53;91.36;102603.72;5072897;28;20033;-67
2021/11/19 05:24:49;;;;;;;43.95;24.38;;;;;;;9.42;91.46;102600.91;5055466;28;20436;-66
2021/11/19 05:27:17;;;;;;;46.25;22.58;;;;;;;9.60;91.19;102607.66;5055367;28;20063;-66
2021/11/19 05:29:44;;;;;;;47.08;24.42;;;;;;;9.68;90.99;102593.00;5071733;28;20049;-67
2021/11/19 05:32:12;;;;;;;43.13;22.23;;;;;;;9.56;91.28;102597.34;5082810;28;20060;-66
2021/11/19 05:34:39;;;;;;;44.53;23.50;;;;;;;9.53;91.20;102595.75;5058642;28;20508;-66
2021/11/19 05:37:07;;;;;;;47.78;24.42;;;;;;;9.61;91.32;102601.38;5091626;28;20055;-66
2021/11/19 05:39:35;;;;;;;46.88;22.85;;;;;;;9.74;90.59;102606.72;5091926;28;20112;-67
2021/11/19 05:42:05;;;;;;;48.58;24.05;;;;;;;9.58;91.32;102603.38;5092952;28;20396;-66
2021/11/19 05:44:35;;;;;;;50.17;24.40;;;;;;;9.57;90.87;102597.25;5091214;28;20158;-66
2021/11/19 05:47:22;;;;;;;53.40;25.02;;;;;;;9.62;91.65;102607.53;5092709;28;20043;-66
2021/11/19 05:50:00;;;;;;;47.95;23.60;;;;;;;9.70;91.07;102613.16;5091820;28;20075;-66
2021/11/19 05:52:29;;;;;;;49.63;23.48;;;;;;;9.71;90.85;102603.41;5092705;28;20114;-66
2021/11/19 05:54:56;;;;;;;51.33;24.77;;;;;;;9.79;90.57;102601.09;5092113;28;20070;-66
2021/11/19 05:57:23;;;;;;;49.75;25.20;;;;;;;9.79;90.72;102601.09;5092719;28;20051;-66
2021/11/19 05:59:50;;;;;;;50.30;24.40;;;;;;;9.66;91.17;102595.78;5092632;28;20044;-66
2021/11/19 06:02:37;;;;;;;48.90;24.20;;;;;;;9.75;90.76;102604.91;5103643;28;20055;-66
2021/11/19 06:05:24;;;;;;;50.20;23.92;;;;;;;9.74;91.05;102608.50;5109452;28;20100;-66
2021/11/19 06:07:53;;;;;;;48.38;24.15;;;;;;;9.80;90.58;102610.75;5079007;28;20097;-66
2021/11/19 06:10:25;;;;;;;48.67;23.55;;;;;;;9.75;90.96;102612.84;5094868;28;20075;-66
2021/11/19 06:13:00;;;;;;;47.65;24.48;;;;;;;9.82;90.53;102621.25;5091471;28;20489;-66
2021/11/19 06:15:32;;;;;;;49.42;24.40;;;;;;;9.67;91.07;102616.03;5072350;28;20040;-67
2021/11/19 06:18:10;;;;;;;45.05;23.63;;;;;;;9.67;91.28;102618.66;5063163;28;20447;-66
2021/11/19 06:20:44;;;;;;;47.33;24.58;;;;;;;9.70;91.32;102620.28;5069030;28;20131;-66
2021/11/19 06:23:19;;;;;;;46.83;23.90;;;;;;;9.68;91.49;102619.50;5054898;28;20128;-66
2021/11/19 06:25:47;;;;;;;48.33;23.48;;;;;;;9.79;90.85;102620.50;5054435;28;20406;-66
2021/11/19 06:28:19;;;;;;;50.25;24.42;;;;;;;9.65;91.72;102625.03;5070410;28;20064;-67
2021/11/19 06:30:49;;;;;;;51.50;24.00;;;;;;;9.74;91.16;102627.91;5072196;28;20051;-66
2021/11/19 06:33:17;;;;;;;47.28;23.40;;;;;;;9.68;91.92;102625.69;5070366;28;20116;-67
2021/11/19 06:35:43;;;;;;;46.15;23.35;;;;;;;9.54;91.99;102625.75;5057467;28;20062;-67
2021/11/19 06:38:10;;;;;;;45.92;24.35;;;;;;;9.72;91.95;102631.63;5092361;28;20050;-67
2021/11/19 06:40:45;;;;;;;53.03;23.70;;;;;;;9.81;91.48;102628.34;5092041;28;20048;-67
2021/11/19 06:43:32;;;;;;;41.38;21.70;;;;;;;9.82;91.40;102627.38;5090704;28;20036;-67
2021/11/19 06:46:21;;;;;;;44.90;22.35;;;;;;;9.77;91.16;102617.13;5074923;28;20409;-67
2021/11/19 06:49:08;;;;;;;53.35;23.52;;;;;;;9.83;91.04;102633.56;5073347;28;20048;-66
2021/11/19 06:51:54;;;;;;;38.50;20.05;;;;;;;9.78;91.23;102637.34;5075617;28;20116;-67
2021/11/19 06:54:41;;;;;;;40.45;22.02;;;;;;;9.67;91.75;102639.03;5074252;28;20440;-67
2021/11/19 06:57:28;;;;;;;46.95;22.83;;;;;;;9.80;91.48;102647.84;5075144;28;20040;-66
2021/11/19 06:59:54;;;;;;;44.95;22.77;;;;;;;9.83;91.08;102646.81;5074396;28;20056;-67
2021/11/19 07:02:21;;;;;;;45.30;22.30;;;;;;;9.85;91.13;102642.25;5085410;28;20074;-67
2021/11/19 07:04:50;;;;;;;42.65;22.80;;;;;;;9.68;91.53;102643.34;5092764;28;20044;-66
2021/11/19 07:07:17;;;;;;;43.90;21.88;;;;;;;9.70;91.79;102644.97;5094705;28;20040;-67
2021/11/19 07:09:45;;;;;;;46.10;22.50;;;;;;;9.75;91.53;102655.25;5094432;28;20044;-66
2021/11/19 07:12:15;;;;;;;47.65;22.48;;;;;;;9.80;91.23;102655.81;5095617;28;20040;-66
2021/11/19 07:14:50;;;;;;;43.15;21.67;;;;;;;9.60;91.97;102657.13;5095559;28;20573;-66
2021/11/19 07:17:18;;;;;;;44.53;22.63;;;;;;;9.74;92.18;102657.06;5094314;28;20192;-66
2021/11/19 07:19:44;;;;;;;45.08;22.42;;;;;;;9.61;92.05;102662.31;5091686;28;20036;-67
2021/11/19 07:22:12;;;;;;;44.15;22.70;;;;;;;9.66;92.58;102662.03;5075321;28;20068;-66
2021/11/19 07:24:42;;;;;;;42.78;23.30;;;;;;;9.58;92.57;102659.03;5073848;28;20517;-66
2021/11/19 07:27:12;;;;;;;42.55;22.52;;;;;;;9.67;92.22;102655.78;5074050;28;20092;-67
2021/11/19 07:29:40;;;;;;;47.28;22.75;;;;;;;9.68;92.53;102665.44;5075083;28;20044;-67
2021/11/19 07:32:28;;;;;;;48.78;22.85;;;;;;;9.77;92.19;102670.13;5072604;28;20040;-67
2021/11/19 07:35:11;;;;;;;42.10;21.80;;;;;;;9.68;92.88;102669.84;5073810;28;20049;-67
2021/11/19 07:37:55;;;;;;;46.97;23.05;;;;;;;9.57;92.73;102668.78;5074096;28;20075;-66
2021/11/19 07:40:37;;;;;;;44.72;22.10;;;;;;;9.59;93.05;102671.34;5073707;28;20128;-66
2021/11/19 07:43:27;;;;;;;47.83;22.70;;;;;;;9.79;92.21;102673.50;5074438;28;20064;-66
2021/11/19 07:46:19;;;;;;;40.85;21.08;;;;;;;9.71;92.37;102685.56;5074640;28;20064;-66
2021/11/19 07:48:50;;;;;;;44.20;21.85;;;;;;;9.63;92.52;102679.94;5089554;28;20447;-67
2021/11/19 07:51:23;;;;;;;42.30;22.48;;;;;;;9.94;91.38;102686.72;5074839;28;20048;-67
2021/11/19 07:53:51;;;;;;;43.35;21.98;;;;;;;9.83;92.04;102687.41;5093378;28;20071;-67
2021/11/19 07:56:23;;;;;;;40.55;21.63;;;;;;;9.66;92.38;102688.53;5092914;28;20369;-66
2021/11/19 07:58:49;;;;;;;39.00;21.45;;;;;;;9.82;92.43;102690.16;5092905;28;20069;-66
2021/11/19 08:01:16;;;;;;;40.15;22.17;;;;;;;9.96;91.45;102682.97;5092775;28;20535;-67
2021/11/19 08:03:43;;;;;;;44.40;21.23;;;;;;;9.91;91.80;102676.28;5091365;28;20578;-67
2021/11/19 08:06:11;;;;;;;41.72;21.98;;;;;;;9.83;92.41;102678.63;5094136;28;20119;-67
2021/11/19 08:08:39;;;;;;;43.10;22.40;;;;;;;10.09;90.64;102677.72;5094405;28;20044;-67
2021/11/19 08:11:16;;;;;;;43.35;22.38;;;;;;;9.92;91.26;102676.19;5078237;28;20127;-67
2021/11/19 08:13:44;;;;;;;39.15;21.77;;;;;;;10.10;90.88;102676.78;5076682;28;20481;-67
2021/11/19 08:16:13;;;;;;;44.13;21.90;;;;;;;9.78;91.86;102681.56;5094296;28;20485;-66
2021/11/19 08:18:55;;;;;;;43.92;23.63;;;;;;;9.89;92.11;102681.69;5083383;28;20048;-66
2021/11/19 08:21:24;;;;;;;44.63;22.55;;;;;;;9.88;91.68;102685.31;5056396;28;20115;-67
2021/11/19 08:23:55;;;;;;;45.25;22.23;;;;;;;9.87;92.41;102678.31;5056260;28;20032;-67
2021/11/19 08:26:30;;;;;;;41.10;22.88;;;;;;;10.00;91.37;102678.31;5076893;28;20037;-67
2021/11/19 08:28:58;;;;;;;37.83;20.83;;;;;;;10.11;90.86;102681.09;5076586;28;20504;-67
2021/11/19 08:31:26;;;;;;;39.33;21.60;;;;;;;10.07;91.06;102681.44;5083320;28;20060;-67
2021/11/19 08:33:53;;;;;;;42.15;22.52;;;;;;;10.05;90.74;102678.88;5067181;28;20063;-67
2021/11/19 08:36:22;;;;;;;41.72;22.63;;;;;;;9.84;91.92;102677.66;5095150;28;20497;-67
2021/11/19 08:38:49;;;;;;;44.55;22.88;;;;;;;9.93;92.05;102677.03;5059311;28;20082;-67
2021/11/19 08:41:17;;;;;;;47.47;23.50;;;;;;;9.83;91.95;102675.97;5081029;28;20040;-67
2021/11/19 08:43:48;;;;;;;43.42;22.95;;;;;;;9.95;92.05;102678.66;5071317;28;20052;-67
2021/11/19 08:46:20;;;;;;;43.85;21.67;;;;;;;9.96;91.51;102690.09;5086421;28;20036;-67
2021/11/19 08:48:49;;;;;;;47.30;22.17;;;;;;;10.14;91.02;102680.91;5091632;28;20040;-67
2021/11/19 08:51:21;;;;;;;47.40;22.17;;;;;;;9.99;91.60;102685.44;5086307;28;20039;-67
2021/11/19 08:53:51;;;;;;;40.70;21.63;;;;;;;10.12;91.28;102688.13;5079170;28;20535;-67
2021/11/19 08:56:23;;;;;;;45.70;22.55;;;;;;;10.17;90.98;102685.16;5087874;28;20052;-67
2021/11/19 08:58:50;;;;;;;40.67;21.70;;;;;;;10.09;91.64;102687.47;5086126;28;20081;-67
2021/11/19 09:01:19;;;;;;;43.65;22.95;;;;;;;10.21;90.65;102686.66;5082928;28;20048;-67
2021/11/19 09:03:47;;;;;;;47.22;22.30;;;;;;;9.99;91.82;102684.59;5089978;28;20052;-67
2021/11/19 09:06:15;;;;;;;50.95;26.35;;;;;;;9.96;91.51;102690.09;5082609;28;20601;-67
2021/11/19 09:08:44;;;;;;;45.70;22.85;;;;;;;9.84;92.45;102682.97;5091361;28;20105;-66
2021/11/19 09:11:14;;;;;;;43.38;22.17;;;;;;;9.91;92.29;102684.25;5090180;28;20423;-67
2021/11/19 09:13:42;;;;;;;46.72;22.02;;;;;;;10.08;91.43;102683.13;5077245;28;20508;-67
2021/11/19 09:16:12;;;;;;;45.00;23.52;;;;;;;10.04;91.27;102681.63;5089739;28;20048;-67
2021/11/19 09:19:21;;;;;;;45.70;23.30;;;;;;;9.78;92.55;102679.75;5060544;28;20035;-67
2021/11/19 09:21:54;;;;;;;39.63;22.25;;;;;;;10.08;91.66;102678.69;5087094;28;20046;-66
2021/11/19 09:24:28;;;;;;;44.92;23.05;;;;;;;9.99;91.48;102677.50;5087946;28;20397;-66
2021/11/19 09:27:00;;;;;;;41.78;21.17;;;;;;;10.12;91.40;102681.97;5103106;28;20046;-66
2021/11/19 09:29:32;;;;;;;43.15;22.52;;;;;;;10.04;91.65;102684.28;5087847;28;20608;-66
2021/11/19 09:32:00;;;;;;;42.40;21.13;;;;;;;9.93;92.37;102682.34;5088640;28;20040;-67
2021/11/19 09:34:29;;;;;;;47.05;23.55;;;;;;;10.06;92.14;102695.63;5083629;28;20072;-67
2021/11/19 09:36:57;;;;;;;44.88;22.42;;;;;;;10.19;91.44;102697.34;5087968;28;20115;-66
2021/11/19 09:39:26;;;;;;;47.75;21.10;;;;;;;10.18;90.82;102700.94;5081870;28;20039;-67
2021/11/19 09:42:02;;;;;;;50.90;23.17;;;;;;;10.27;90.61;102696.84;5078898;28;20401;-67
2021/11/19 09:45:02;;;;;;;44.72;22.30;;;;;;;10.18;90.82;102693.00;5088547;28;20115;-67
2021/11/19 09:48:09;;;;;;;47.05;22.33;;;;;;;9.97;91.96;102687.34;5073989;28;20090;-66
2021/11/19 09:51:17;;;;;;;42.55;21.50;;;;;;;10.19;91.39;102689.41;5090524;28;20048;-66
2021/11/19 09:54:21;;;;;;;41.95;21.63;;;;;;;10.08;92.06;102688.44;5084035;28;20040;-66
2021/11/19 09:57:14;;;;;;;43.55;21.30;;;;;;;10.18;91.47;102690.34;5074211;28;20119;-66
2021/11/19 09:59:46;;;;;;;41.45;22.15;;;;;;;10.13;92.12;102692.47;5078032;28;20497;-66
2021/11/19 10:02:39;;;;;;;45.33;21.98;;;;;;;10.07;92.14;102690.22;5087480;28;20395;-66
2021/11/19 10:05:46;;;;;;;38.78;20.75;;;;;;;10.40;90.35;102693.38;5081984;28;20040;-66
2021/11/19 10:08:28;;;;;;;40.58;21.42;;;;;;;10.25;90.91;102689.94;5085143;28;20447;-66
2021/11/19 10:11:18;;;;;;;42.75;22.25;;;;;;;10.12;91.24;102696.06;5068810;28;20051;-66
2021/11/19 10:14:25;;;;;;;40.95;22.85;;;;;;;10.15;91.57;102698.53;5066661;28;20097;-66
2021/11/19 10:17:12;;;;;;;40.95;20.90;;;;;;;10.32;90.78;102704.53;5091356;28;20032;-66
2021/11/19 10:19:45;;;;;;;41.63;23.08;;;;;;;10.31;91.03;102698.34;5089348;28;20101;-66
2021/11/19 10:22:35;;;;;;;46.58;22.65;;;;;;;10.44;90.45;102705.47;5072261;28;20043;-66
2021/11/19 10:25:16;;;;;;;39.17;21.08;;;;;;;10.37;90.43;102699.75;5096384;28;20524;-66
2021/11/19 10:27:48;;;;;;;38.28;21.23;;;;;;;10.39;90.48;102700.50;5082632;28;20048;-66
2021/11/19 10:33:22;;;;;;;43.25;22.48;;;;;;;10.26;90.50;102702.22;5134797;27;20394;-67
2021/11/19 10:36:14;;;;;;;43.08;22.10;;;;;;;10.26;91.02;102703.09;5122873;27;20428;-67
2021/11/19 10:39:15;;;;;;;44.95;22.67;;;;;;;10.40;91.01;102702.19;5115340;27;20054;-67
2021/11/19 10:42:06;;;;;;;43.25;21.63;;;;;;;10.46;89.88;102701.78;5111179;27;20433;-68
2021/11/19 10:50:43;;;;;;;42.33;22.75;;;;;;;10.37;90.86;102705.91;5129816;27;20155;-67
2021/11/19 10:53:50;;;;;;;47.33;23.75;;;;;;;10.28;91.17;102710.97;5114027;28;20043;-67
2021/11/19 10:56:56;;;;;;;40.22;22.77;;;;;;;10.44;90.17;102701.03;5129584;28;20039;-67
2021/11/19 10:59:38;;;;;;;45.63;22.15;;;;;;;10.40;90.13;102693.38;5119548;28;20039;-67
2021/11/19 11:07:29;;;;;;;44.80;21.67;;;;;;;10.61;89.60;102699.88;5110865;27;20386;-67
2021/11/19 11:15:47;;;;;;;42.83;21.35;;;;;;;10.36;90.11;102687.44;5077449;27;20368;-67
2021/11/19 11:18:23;;;;;;;43.95;22.88;;;;;;;10.25;90.87;102690.78;5081291;28;20124;-67
2021/11/19 11:20:59;;;;;;;44.53;22.67;;;;;;;10.45;90.35;102684.16;5057650;28;20511;-67
2021/11/19 11:23:34;;;;;;;42.70;22.60;;;;;;;10.45;90.01;102684.16;5059885;28;20037;-68
2021/11/19 11:26:24;;;;;;;42.55;22.20;;;;;;;10.46;90.30;102687.63;5067865;28;20052;-68
2021/11/19 11:28:56;;;;;;;44.20;23.58;;;;;;;10.44;89.80;102686.91;5071925;28;20073;-68
2021/11/19 11:32:02;;;;;;;42.50;22.90;;;;;;;10.42;90.50;102684.34;5078169;28;20045;-68
2021/11/19 11:34:35;;;;;;;39.80;21.85;;;;;;;10.34;90.39;102686.69;5084149;28;20562;-69
2021/11/19 11:37:42;;;;;;;44.58;23.83;;;;;;;10.46;89.71;102690.28;5073279;28;20127;-68
2021/11/19 11:40:18;;;;;;;44.05;23.40;;;;;;;10.44;89.57;102685.13;5045576;28;20056;-69
2021/11/19 11:42:50;;;;;;;42.45;23.40;;;;;;;10.54;89.31;102677.38;5084306;28;20409;-68
2021/11/19 11:45:41;;;;;;;42.47;22.60;;;;;;;10.55;89.24;102679.03;5034870;28;20474;-69
2021/11/19 11:48:37;;;;;;;45.90;22.85;;;;;;;10.52;89.48;102680.13;5074064;28;20404;-69
2021/11/19 11:51:23;;;;;;;47.05;24.63;;;;;;;10.47;89.58;102681.41;5070713;28;20044;-69
2021/11/19 11:54:23;;;;;;;48.22;23.20;;;;;;;10.47;89.83;102673.44;5075363;28;20048;-69
2021/11/19 11:57:29;;;;;;;47.42;23.80;;;;;;;10.74;88.79;102675.97;5065731;28;20095;-69
2021/11/19 12:00:07;;;;;;;43.97;23.50;;;;;;;10.72;88.49;102675.22;5074766;28;20057;-69
2021/11/19 12:02:57;;;;;;;46.08;23.63;;;;;;;10.55;89.27;102669.28;5069999;28;20065;-69
2021/11/19 12:05:41;;;;;;;49.75;25.23;;;;;;;10.68;88.78;102679.91;5067791;28;20033;-68
2021/11/19 12:08:20;;;;;;;45.17;24.02;;;;;;;10.75;88.63;102675.00;5063394;28;20067;-69
2021/11/19 12:11:18;;;;;;;49.15;25.17;;;;;;;10.73;88.98;102682.22;5063974;28;20047;-69